Time;durP1;ratioP1;P1;durP2;ratioP2;P2;SDS_P1;SDS_P2;PMS_P1;PMS_P2;Temp;Humidity;BMP_temperature;BMP_pressure;BME280_temperature;BME280_humidity;BME280_pressure;Samples;Min_cycle;Max_cycle;Signal;HPM_P1;HPM_P2
2021/06/06 08:42:02;;;;;;;7.42;3.62;;;;;;;22.86;56.19;100767.19;1757220;79;25783;-74
2021/06/06 08:44:33;;;;;;;11.20;4.12;;;;;;;22.90;55.07;100762.22;1731404;80;25265;-75
2021/06/06 08:47:14;;;;;;;10.90;4.65;;;;;;;23.00;54.85;100755.80;1731236;80;26341;-72
2021/06/06 08:49:51;;;;;;;15.93;3.90;;;;;;;23.06;55.45;100762.03;1732036;81;25679;-76
2021/06/06 08:53:06;;;;;;;14.90;3.67;;;;;;;23.20;54.90;100760.16;1732304;80;25228;-75
2021/06/06 08:55:49;;;;;;;8.88;3.22;;;;;;;23.28;52.33;100760.83;1732367;80;25601;-71
2021/06/06 08:58:38;;;;;;;8.45;3.33;;;;;;;23.33;53.30;100758.26;1729169;81;25706;-75
2021/06/06 09:01:18;;;;;;;8.07;3.83;;;;;;;23.48;53.36;100756.64;1733075;80;25763;-76
2021/06/06 09:03:44;;;;;;;7.00;3.40;;;;;;;23.49;52.18;100761.48;1729587;81;25169;-72
2021/06/06 09:06:21;;;;;;;7.00;2.85;;;;;;;23.44;52.34;100755.52;1731413;80;25390;-74
2021/06/06 09:08:47;;;;;;;6.20;3.02;;;;;;;23.46;49.09;100753.92;1730615;81;25673;-75
2021/06/06 09:11:17;;;;;;;9.13;2.80;;;;;;;23.44;50.60;100762.72;1733758;80;25659;-71
2021/06/06 09:13:43;;;;;;;6.28;3.10;;;;;;;23.52;48.81;100764.16;1730771;81;25522;-73
2021/06/06 09:16:26;;;;;;;11.43;3.27;;;;;;;23.49;50.79;100754.28;1730426;80;25183;-75
2021/06/06 09:19:13;;;;;;;7.35;2.62;;;;;;;23.66;50.97;100750.28;1730945;81;25455;-71
2021/06/06 09:22:02;;;;;;;8.08;2.50;;;;;;;23.88;50.58;100746.91;1731577;81;25185;-71
2021/06/06 09:24:38;;;;;;;10.13;3.25;;;;;;;23.93;49.21;100747.80;1732920;80;25177;-70
2021/06/06 09:27:18;;;;;;;6.45;2.77;;;;;;;24.07;48.79;100748.27;1730104;80;25790;-74
2021/06/06 09:29:45;;;;;;;7.05;2.95;;;;;;;24.09;47.83;100744.83;1730246;80;25718;-77
2021/06/06 09:32:19;;;;;;;7.58;2.70;;;;;;;24.04;46.75;100740.75;1729369;80;26428;-75
2021/06/06 09:34:59;;;;;;;13.65;3.52;;;;;;;24.08;48.48;100737.05;1731000;80;25181;-76
2021/06/06 09:37:28;;;;;;;11.57;2.80;;;;;;;24.29;48.04;100732.80;1731876;82;25660;-75
2021/06/06 09:40:06;;;;;;;5.90;2.75;;;;;;;24.50;47.25;100736.05;1729952;81;26420;-71
2021/06/06 09:42:44;;;;;;;10.38;2.10;;;;;;;24.60;47.08;100739.36;1718329;81;25674;-71
2021/06/06 09:45:32;;;;;;;5.35;2.30;;;;;;;24.70;44.60;100734.15;1718628;81;25695;-75
2021/06/06 09:48:15;;;;;;;5.67;2.08;;;;;;;24.70;44.92;100725.33;1644904;85;26220;-70
2021/06/06 09:50:45;;;;;;;5.33;2.20;;;;;;;24.64;45.38;100726.33;1647828;85;25311;-75
2021/06/06 09:53:26;;;;;;;5.10;2.40;;;;;;;24.62;45.88;100731.91;1646581;85;25534;-77
2021/06/06 09:56:09;;;;;;;6.55;2.50;;;;;;;24.54;44.34;100731.02;1642921;85;25421;-71
2021/06/06 09:58:39;;;;;;;5.72;2.65;;;;;;;24.31;44.61;100735.52;1646761;85;25840;-78
2021/06/06 10:01:23;;;;;;;5.55;2.83;;;;;;;24.21;44.44;100729.22;1646468;85;25651;-76
2021/06/06 10:03:57;;;;;;;6.67;2.05;;;;;;;24.30;45.47;100726.39;1643871;85;25292;-76
2021/06/06 10:06:34;;;;;;;6.12;2.60;;;;;;;24.53;45.17;100724.06;1645786;84;25511;-76
2021/06/06 10:09:20;;;;;;;6.30;2.60;;;;;;;24.52;45.73;100724.56;1644981;85;25368;-71
2021/06/06 10:12:10;;;;;;;9.43;2.58;;;;;;;24.63;45.59;100724.16;1642218;85;25247;-71
2021/06/06 10:14:56;;;;;;;4.92;2.50;;;;;;;24.50;44.48;100727.20;1644730;85;25226;-76
2021/06/06 10:17:48;;;;;;;6.95;2.27;;;;;;;24.50;45.20;100725.87;1645495;85;25779;-76
2021/06/06 10:20:37;;;;;;;7.05;2.60;;;;;;;24.58;45.08;100722.25;1586989;88;25584;-77
2021/06/06 10:23:18;;;;;;;6.30;2.70;;;;;;;24.70;44.79;100726.13;1654352;81;25659;-76
2021/06/06 10:26:01;;;;;;;12.98;2.55;;;;;;;24.61;43.95;100730.31;1719204;81;25719;-76
2021/06/06 10:28:35;;;;;;;5.33;2.35;;;;;;;24.59;44.14;100714.50;1717116;81;25403;-77
2021/06/06 10:31:11;;;;;;;4.67;2.40;;;;;;;24.59;44.25;100715.84;1714899;81;25170;-75
2021/06/06 10:34:02;;;;;;;11.65;2.50;;;;;;;24.47;43.68;100715.17;1720928;81;26513;-75
2021/06/06 10:36:32;;;;;;;5.87;2.83;;;;;;;24.42;44.04;100718.25;1718664;81;25174;-71
2021/06/06 10:38:59;;;;;;;3.12;2.52;;;;;;;24.38;44.48;100720.09;1719210;81;25690;-71
2021/06/06 10:41:30;;;;;;;7.33;2.55;;;;;;;24.43;43.13;100718.55;1720524;81;25804;-70
2021/06/06 10:44:17;;;;;;;5.10;2.00;;;;;;;24.32;42.45;100714.94;1724399;81;25672;-72
2021/06/06 10:46:58;;;;;;;3.98;2.27;;;;;;;24.18;43.17;100717.70;1709092;81;28030;-71
2021/06/06 10:49:53;;;;;;;5.85;2.05;;;;;;;24.08;43.22;100715.15;1722374;81;25648;-72
2021/06/06 10:52:32;;;;;;;8.88;2.30;;;;;;;24.01;43.78;100711.86;1724906;81;25607;-71
2021/06/06 10:55:24;;;;;;;8.18;2.47;;;;;;;24.14;43.60;100712.02;1725793;81;25769;-70
2021/06/06 10:57:51;;;;;;;11.20;2.83;;;;;;;24.25;43.59;100713.77;1725644;81;26143;-74
2021/06/06 11:00:40;;;;;;;6.40;2.30;;;;;;;24.37;43.88;100707.80;1728806;81;26312;-74
2021/06/06 11:03:14;;;;;;;5.45;2.67;;;;;;;24.48;42.77;100710.63;1729310;81;25134;-74
2021/06/06 11:05:48;;;;;;;6.15;2.37;;;;;;;24.62;43.29;100705.72;1724019;81;25676;-72
2021/06/06 11:08:28;;;;;;;3.67;2.30;;;;;;;24.66;42.84;100706.28;1727566;81;25696;-74
2021/06/06 11:10:58;;;;;;;3.75;1.80;;;;;;;24.71;42.32;100701.53;1726012;81;25658;-74
2021/06/06 11:13:38;;;;;;;7.10;2.15;;;;;;;24.82;42.52;100699.24;1721138;81;26915;-74
2021/06/06 11:16:24;;;;;;;4.47;2.40;;;;;;;24.86;41.07;100700.37;1729643;81;25308;-74
2021/06/06 11:18:58;;;;;;;5.47;2.20;;;;;;;24.83;41.04;100696.03;1728989;81;25259;-74
2021/06/06 11:21:39;;;;;;;3.35;1.80;;;;;;;24.80;41.47;100692.02;1727824;81;25439;-74
2021/06/06 11:24:27;;;;;;;7.08;2.00;;;;;;;24.99;41.45;100693.28;1722856;81;25785;-73
2021/06/06 11:27:08;;;;;;;5.58;2.20;;;;;;;25.12;40.33;100696.06;1727510;81;25587;-74
2021/06/06 11:29:57;;;;;;;7.62;2.05;;;;;;;25.27;39.84;100694.64;1724316;81;25701;-71
2021/06/06 11:32:57;;;;;;;6.10;2.17;;;;;;;25.34;39.05;100696.55;1722878;81;33070;-71
2021/06/06 11:35:27;;;;;;;;;;;;;;;25.37;39.19;100687.50;1727370;81;25229;-71
2021/06/06 11:37:57;;;;;;;6.92;2.05;;;;;;;25.45;39.44;100690.22;1724700;81;25182;-70
2021/06/06 11:40:35;;;;;;;4.72;2.20;;;;;;;25.55;38.79;100683.61;1725527;81;25639;-74
2021/06/06 11:43:31;;;;;;;7.33;2.22;;;;;;;25.59;39.08;100674.52;1729521;81;25245;-70
2021/06/06 11:46:03;;;;;;;9.65;2.05;;;;;;;25.53;39.19;100687.06;1728432;81;25684;-71
2021/06/06 11:48:33;;;;;;;6.62;2.37;;;;;;;25.60;38.77;100679.63;1721467;81;25281;-71
2021/06/06 11:51:03;;;;;;;13.28;8.13;;;;;;;25.65;39.33;100671.64;1726422;81;25715;-71
2021/06/06 11:53:42;;;;;;;14.25;5.85;;;;;;;25.73;37.49;100673.03;1727247;81;25786;-72
2021/06/06 11:56:14;;;;;;;17.87;11.30;;;;;;;25.68;37.26;100667.10;1727030;80;25911;-71
2021/06/06 11:58:57;;;;;;;16.23;11.90;;;;;;;25.66;37.42;100665.74;1725818;81;25660;-76
2021/06/06 12:01:25;;;;;;;4.60;3.00;;;;;;;25.74;37.31;100662.58;1732587;81;25616;-74
2021/06/06 12:03:55;;;;;;;6.30;2.62;;;;;;;25.79;37.59;100659.94;1729191;81;25195;-74
2021/06/06 12:06:26;;;;;;;;;;;;;;;25.94;38.01;100649.86;1728611;81;25561;-74
2021/06/06 12:08:58;;;;;;;10.13;2.70;;;;;;;26.14;37.03;100647.83;1727089;81;25207;-75
2021/06/06 12:11:30;;;;;;;5.10;1.77;;;;;;;25.99;36.99;100640.52;1728543;81;25565;-75
2021/06/06 12:14:16;;;;;;;5.62;1.90;;;;;;;25.84;37.54;100647.16;1725236;81;25163;-74
2021/06/06 12:16:58;;;;;;;9.50;2.22;;;;;;;25.69;37.71;100657.19;1716087;82;25809;-75
2021/06/06 12:19:47;;;;;;;9.15;2.08;;;;;;;25.50;37.77;100652.78;1714760;82;26445;-74
2021/06/06 12:22:22;;;;;;;6.95;1.92;;;;;;;25.35;38.58;100648.14;1712522;82;25756;-74
2021/06/06 12:25:17;;;;;;;5.25;2.08;;;;;;;25.31;39.17;100648.36;1713737;82;25840;-75
2021/06/06 12:27:49;;;;;;;5.67;1.72;;;;;;;25.49;38.71;100653.05;1713014;82;25705;-75
2021/06/06 12:30:48;;;;;;;4.50;2.42;;;;;;;25.39;37.67;100651.90;1713834;82;25244;-75
2021/06/06 12:33:37;;;;;;;3.53;2.00;;;;;;;25.25;38.48;100649.39;1683791;84;25615;-74
2021/06/06 12:36:11;;;;;;;4.83;2.25;;;;;;;25.07;38.02;100647.86;1682604;84;25275;-75
2021/06/06 12:38:37;;;;;;;12.82;2.80;;;;;;;24.96;38.57;100646.16;1683923;84;25709;-74
2021/06/06 12:41:06;;;;;;;11.12;2.98;;;;;;;24.88;38.49;100642.09;1683344;84;26238;-74
2021/06/06 12:43:35;;;;;;;9.13;2.25;;;;;;;24.86;39.27;100643.41;1685349;84;25276;-71
2021/06/06 12:46:06;;;;;;;3.08;1.90;;;;;;;24.96;39.38;100644.31;1685448;84;25649;-70
2021/06/06 12:48:55;;;;;;;11.40;3.58;;;;;;;24.89;38.72;100647.72;1662776;84;26202;-71
2021/06/06 12:51:27;;;;;;;10.38;2.30;;;;;;;24.78;39.18;100640.66;1684841;84;25815;-71
2021/06/06 12:53:53;;;;;;;7.60;2.55;;;;;;;24.93;40.03;100643.45;1685790;84;25207;-74
2021/06/06 12:56:29;;;;;;;7.58;2.12;;;;;;;25.12;39.54;100639.88;1686142;83;25275;-75
2021/06/06 12:59:09;;;;;;;10.45;2.52;;;;;;;25.11;38.76;100636.14;1687423;83;25742;-74
2021/06/06 13:01:35;;;;;;;6.58;2.90;;;;;;;25.08;38.65;100632.64;1686781;83;25302;-75
2021/06/06 13:04:21;;;;;;;8.08;2.50;;;;;;;25.05;38.34;100635.83;1686883;83;25261;-75
2021/06/06 13:06:49;;;;;;;13.00;2.40;;;;;;;24.97;38.03;100633.88;1686157;84;25617;-71
2021/06/06 13:09:30;;;;;;;4.47;2.10;;;;;;;24.91;38.59;100632.23;1699874;81;25664;-71
2021/06/06 13:12:16;;;;;;;5.55;2.55;;;;;;;24.90;37.74;100631.93;1707534;81;26436;-71
2021/06/06 13:15:09;;;;;;;3.45;2.08;;;;;;;24.84;37.93;100626.27;1708156;81;26197;-72
2021/06/06 13:17:50;;;;;;;7.28;2.00;;;;;;;24.81;37.93;100621.43;1707243;81;25590;-70
2021/06/06 13:20:22;;;;;;;5.53;2.12;;;;;;;24.74;37.47;100630.17;1708684;81;25906;-71
2021/06/06 13:22:59;;;;;;;6.00;2.42;;;;;;;24.69;37.56;100628.78;1708111;81;25744;-71
2021/06/06 13:25:49;;;;;;;9.20;2.58;;;;;;;24.62;37.36;100626.33;1706735;81;25682;-71
2021/06/06 13:28:23;;;;;;;7.45;4.45;;;;;;;24.58;37.59;100624.69;1707738;81;27001;-72
2021/06/06 13:30:54;;;;;;;5.00;2.33;;;;;;;24.63;37.81;100619.91;1707278;81;26197;-72
2021/06/06 13:33:21;;;;;;;6.80;3.08;;;;;;;24.83;37.97;100623.33;1709388;81;25289;-72
2021/06/06 13:35:51;;;;;;;9.18;3.05;;;;;;;25.08;37.87;100620.06;1706824;81;25317;-71
2021/06/06 13:38:17;;;;;;;;;;;;;;;25.38;37.98;100619.52;1712138;81;25592;-70
2021/06/06 13:40:48;;;;;;;5.00;2.10;;;;;;;25.54;35.83;100616.42;1709047;81;25882;-70
2021/06/06 13:43:15;;;;;;;4.40;1.80;;;;;;;25.43;34.64;100620.90;1717917;81;25696;-71
2021/06/06 13:45:41;;;;;;;5.05;2.75;;;;;;;25.28;34.92;100628.80;1720384;81;25219;-71
2021/06/06 13:48:11;;;;;;;7.15;2.22;;;;;;;25.32;34.99;100625.91;1720945;81;25622;-72
2021/06/06 13:50:42;;;;;;;6.47;2.75;;;;;;;25.46;35.45;100623.59;1720010;81;30285;-72
2021/06/06 13:53:16;;;;;;;4.53;2.50;;;;;;;25.63;35.01;100618.88;1719487;81;25657;-73
2021/06/06 13:55:43;;;;;;;5.22;1.87;;;;;;;25.79;34.69;100619.77;1720641;81;25407;-76
2021/06/06 13:58:09;;;;;;;3.98;1.92;;;;;;;25.66;34.48;100622.36;1717239;81;25688;-76
2021/06/06 14:00:37;;;;;;;3.37;1.90;;;;;;;25.44;33.67;100622.50;1720038;81;25163;-76
2021/06/06 14:03:09;;;;;;;4.15;1.67;;;;;;;25.24;34.19;100630.39;1692522;81;25711;-77
2021/06/06 14:05:35;;;;;;;3.15;2.08;;;;;;;25.12;34.52;100623.03;1720099;81;25755;-76
2021/06/06 14:08:01;;;;;;;4.17;2.50;;;;;;;25.03;34.23;100616.81;1721900;81;25947;-71
2021/06/06 14:10:39;;;;;;;2.55;1.50;;;;;;;25.07;34.66;100616.30;1718121;81;25688;-72
2021/06/06 14:13:08;;;;;;;4.10;2.10;;;;;;;25.08;34.49;100616.59;1719805;81;25698;-71
2021/06/06 14:15:34;;;;;;;4.33;1.87;;;;;;;25.31;34.02;100598.05;1720040;81;25534;-72
2021/06/06 14:18:01;;;;;;;5.05;2.10;;;;;;;25.31;34.02;100598.05;1717880;81;25660;-71
2021/06/06 14:20:28;;;;;;;6.85;1.95;;;;;;;25.64;33.16;100619.14;1717586;82;25583;-71
2021/06/06 14:22:56;;;;;;;7.05;2.40;;;;;;;25.71;33.57;100621.59;1718746;81;25739;-71
2021/06/06 14:25:27;;;;;;;4.05;2.30;;;;;;;25.79;34.13;100609.05;1717587;81;25719;-71
2021/06/06 14:27:54;;;;;;;4.03;2.10;;;;;;;25.77;33.37;100620.55;1716934;81;25674;-70
2021/06/06 14:30:25;;;;;;;6.12;1.90;;;;;;;25.58;33.48;100631.42;1719608;81;26541;-71
2021/06/06 14:32:53;;;;;;;5.72;2.02;;;;;;;25.56;33.94;100616.14;1717686;81;25199;-74
2021/06/06 14:35:22;;;;;;;3.92;1.75;;;;;;;25.65;33.54;100617.29;1718194;81;25758;-76
2021/06/06 14:37:48;;;;;;;6.58;2.10;;;;;;;25.74;33.59;100617.06;1718812;81;25660;-70
2021/06/06 14:40:19;;;;;;;6.42;2.10;;;;;;;25.73;33.40;100622.16;1718809;81;26297;-70
2021/06/06 14:42:45;;;;;;;3.45;1.72;;;;;;;25.77;33.00;100621.09;1733944;80;25682;-71
2021/06/06 14:45:16;;;;;;;7.30;2.47;;;;;;;25.90;32.08;100616.64;1740612;80;25724;-71
2021/06/06 14:47:42;;;;;;;4.65;2.10;;;;;;;26.11;34.06;100616.20;1741297;80;25171;-71
2021/06/06 14:50:10;;;;;;;2.95;1.70;;;;;;;26.27;32.70;100619.72;1741735;80;25201;-76
2021/06/06 14:52:37;;;;;;;5.58;1.82;;;;;;;26.36;32.83;100618.16;1740596;80;25546;-77
2021/06/06 14:55:06;;;;;;;5.97;1.87;;;;;;;26.37;32.92;100610.37;1740023;80;25639;-77
2021/06/06 14:57:32;;;;;;;3.83;2.00;;;;;;;26.30;32.62;100620.02;1738741;80;25644;-77
2021/06/06 14:59:58;;;;;;;9.50;2.37;;;;;;;26.12;33.30;100622.63;1740837;80;26565;-77
2021/06/06 15:02:23;;;;;;;5.67;2.50;;;;;;;25.92;33.04;100619.87;1739886;80;25712;-77
2021/06/06 15:04:49;;;;;;;8.90;2.77;;;;;;;25.75;32.61;100609.28;1739615;80;25613;-77
2021/06/06 15:07:15;;;;;;;4.20;2.12;;;;;;;25.62;33.65;100612.45;1739551;80;25633;-77
2021/06/06 15:09:41;;;;;;;4.37;2.15;;;;;;;25.56;33.93;100610.25;1739902;80;25646;-77
2021/06/06 15:12:08;;;;;;;5.53;2.40;;;;;;;25.57;33.36;100611.08;1741434;80;25716;-78
2021/06/06 15:14:34;;;;;;;6.55;2.10;;;;;;;25.73;34.20;100613.29;1740460;80;25735;-78
2021/06/06 15:17:00;;;;;;;5.53;1.92;;;;;;;25.91;34.30;100603.51;1740300;80;25671;-78
2021/06/06 15:19:26;;;;;;;5.22;2.35;;;;;;;26.14;34.74;100607.64;1740780;80;25216;-78
2021/06/06 15:21:52;;;;;;;9.20;2.20;;;;;;;26.38;34.52;100605.27;1740279;80;25588;-77
2021/06/06 15:24:19;;;;;;;4.97;2.10;;;;;;;26.54;34.35;100610.97;1739730;80;25841;-77
2021/06/06 15:26:46;;;;;;;4.12;2.40;;;;;;;26.65;33.68;100613.14;1740715;80;25769;-77
2021/06/06 15:29:16;;;;;;;5.78;2.42;;;;;;;26.70;33.54;100605.64;1738072;80;25508;-78
2021/06/06 15:31:44;;;;;;;;;;;;;;;26.70;32.93;100606.98;1741359;80;25740;-77
2021/06/06 15:34:11;;;;;;;6.55;2.17;;;;;;;26.66;32.58;100604.05;1739650;80;25509;-77
2021/06/06 15:36:38;;;;;;;3.20;2.15;;;;;;;26.64;32.88;100610.73;1739071;80;25225;-77
2021/06/06 15:39:11;;;;;;;4.60;2.25;;;;;;;26.72;32.70;100603.51;1739173;80;25660;-77
2021/06/06 15:41:40;;;;;;;4.92;2.12;;;;;;;26.84;32.90;100608.61;1740524;80;25678;-77
2021/06/06 15:44:06;;;;;;;4.92;2.00;;;;;;;26.91;31.93;100605.13;1726484;81;25714;-77
2021/06/06 15:46:35;;;;;;;3.72;1.98;;;;;;;26.79;32.21;100614.25;1726316;81;25656;-77
2021/06/06 15:49:02;;;;;;;3.90;2.25;;;;;;;26.67;32.77;100596.25;1727995;81;25680;-77
2021/06/06 15:51:44;;;;;;;4.70;2.17;;;;;;;26.73;33.84;100605.91;1725410;81;25575;-77
2021/06/06 15:54:13;;;;;;;6.58;2.75;;;;;;;26.78;33.99;100596.53;1727261;81;26030;-77
2021/06/06 15:56:39;;;;;;;4.90;2.47;;;;;;;26.91;34.66;100591.18;1728050;81;25688;-77
2021/06/06 15:59:06;;;;;;;11.35;2.30;;;;;;;26.93;34.09;100597.63;1727124;80;25752;-77
2021/06/06 16:01:34;;;;;;;6.85;2.00;;;;;;;26.86;33.96;100597.88;1721064;80;25651;-76
2021/06/06 16:04:00;;;;;;;6.47;2.30;;;;;;;26.74;34.03;100597.35;1725211;80;25174;-76
2021/06/06 16:06:28;;;;;;;7.37;2.83;;;;;;;26.68;34.17;100596.55;1727333;80;25735;-77
2021/06/06 16:08:55;;;;;;;10.32;2.37;;;;;;;26.50;34.21;100595.13;1726930;80;25174;-76
2021/06/06 16:11:23;;;;;;;5.87;2.22;;;;;;;26.27;34.66;100598.28;1727211;81;25624;-76
2021/06/06 16:13:50;;;;;;;7.47;2.27;;;;;;;26.08;34.87;100600.12;1694602;81;25788;-76
2021/06/06 16:16:18;;;;;;;5.10;2.35;;;;;;;26.06;34.50;100604.13;1725060;80;25616;-77
2021/06/06 16:18:44;;;;;;;6.72;2.37;;;;;;;25.93;35.00;100597.36;1725087;80;26386;-73
2021/06/06 16:21:15;;;;;;;5.45;2.00;;;;;;;25.88;35.40;100595.46;1725202;80;25440;-77
2021/06/06 16:23:40;;;;;;;7.37;2.35;;;;;;;25.87;35.24;100600.56;1726126;80;25632;-78
2021/06/06 16:26:09;;;;;;;12.73;2.60;;;;;;;25.80;35.35;100596.47;1726607;80;25667;-78
2021/06/06 16:28:40;;;;;;;5.30;2.33;;;;;;;25.82;35.79;100590.33;1697464;82;25438;-78
2021/06/06 16:31:10;;;;;;;5.17;2.12;;;;;;;25.91;35.89;100594.94;1725851;81;25728;-78
2021/06/06 16:33:37;;;;;;;5.53;1.98;;;;;;;25.83;35.53;100591.41;1727513;81;25777;-77
2021/06/06 16:36:03;;;;;;;7.30;2.47;;;;;;;25.65;35.82;100587.84;1727825;81;25819;-72
2021/06/06 16:38:29;;;;;;;7.85;2.33;;;;;;;25.57;36.00;100593.68;1725021;81;25699;-76
2021/06/06 16:40:56;;;;;;;5.85;2.40;;;;;;;25.52;35.76;100590.97;1725701;80;25194;-76
2021/06/06 16:43:22;;;;;;;5.78;2.65;;;;;;;25.49;35.87;100598.19;1729245;81;25664;-76
2021/06/06 16:45:49;;;;;;;6.08;2.60;;;;;;;25.57;35.90;100590.47;1731907;81;25559;-76
2021/06/06 16:48:17;;;;;;;6.42;2.50;;;;;;;25.63;36.15;100589.96;1731443;81;25708;-76
2021/06/06 16:50:44;;;;;;;8.30;2.50;;;;;;;25.71;36.20;100585.98;1732650;81;25228;-75
2021/06/06 16:53:12;;;;;;;9.93;2.85;;;;;;;25.71;36.24;100582.77;1728975;80;25731;-75
2021/06/06 16:55:49;;;;;;;7.03;3.58;;;;;;;25.71;36.24;100586.79;1733018;80;25523;-76
2021/06/06 16:58:18;;;;;;;4.87;3.55;;;;;;;25.77;36.22;100582.27;1731746;82;25693;-76
2021/06/06 17:00:46;;;;;;;9.65;3.20;;;;;;;25.82;36.51;100583.09;1729851;80;25608;-76
2021/06/06 17:03:16;;;;;;;9.00;2.75;;;;;;;25.99;36.79;100585.59;1730533;82;25636;-75
2021/06/06 17:05:42;;;;;;;7.70;2.55;;;;;;;26.16;36.48;100583.24;1731482;80;25195;-75
2021/06/06 17:08:09;;;;;;;6.53;2.62;;;;;;;26.15;36.52;100581.10;1708160;82;25525;-75
2021/06/06 17:10:36;;;;;;;6.67;3.08;;;;;;;26.10;36.43;100576.52;1729705;82;25655;-75
2021/06/06 17:13:06;;;;;;;6.72;3.10;;;;;;;26.08;36.29;100577.34;1730749;82;25632;-73
2021/06/06 17:15:38;;;;;;;10.05;2.77;;;;;;;26.09;36.42;100578.94;1730371;80;25673;-75
2021/06/06 17:18:04;;;;;;;5.37;2.50;;;;;;;26.04;36.17;100576.24;1730642;80;25743;-75
2021/06/06 17:20:30;;;;;;;6.10;2.37;;;;;;;26.05;36.17;100571.69;1728362;81;25501;-74
2021/06/06 17:22:56;;;;;;;6.03;2.27;;;;;;;25.98;35.72;100581.86;1730778;81;25210;-75
2021/06/06 17:25:27;;;;;;;5.97;1.98;;;;;;;25.97;36.03;100578.89;1730204;81;25727;-75
2021/06/06 17:27:53;;;;;;;4.60;2.10;;;;;;;25.94;35.63;100584.23;1730011;81;25513;-76
2021/06/06 17:30:23;;;;;;;7.22;2.52;;;;;;;25.81;35.90;100581.48;1731718;80;25174;-76
2021/06/06 17:32:50;;;;;;;9.50;2.58;;;;;;;25.78;35.92;100581.19;1731443;81;25564;-76
2021/06/06 17:35:20;;;;;;;6.45;2.45;;;;;;;25.60;36.12;100584.59;1731882;81;25607;-76
2021/06/06 17:37:46;;;;;;;8.73;3.42;;;;;;;25.50;36.32;100587.73;1731759;82;25207;-76
2021/06/06 17:40:14;;;;;;;5.12;2.67;;;;;;;25.34;36.73;100588.17;1732496;81;25310;-76
2021/06/06 17:42:40;;;;;;;9.03;2.50;;;;;;;25.26;36.90;100593.46;1730963;81;25299;-76
2021/06/06 17:45:09;;;;;;;11.25;2.95;;;;;;;25.07;37.04;100593.02;1720278;81;25586;-76
2021/06/06 17:47:36;;;;;;;8.58;3.10;;;;;;;24.91;37.27;100588.61;1720691;81;25271;-76
2021/06/06 17:50:08;;;;;;;7.50;3.70;;;;;;;24.77;37.51;100586.37;1715903;81;25217;-75
2021/06/06 17:52:34;;;;;;;11.05;3.60;;;;;;;24.65;37.75;100584.91;1718933;81;25183;-71
2021/06/06 17:55:00;;;;;;;9.70;3.37;;;;;;;24.58;38.23;100593.95;1719531;81;26040;-75
2021/06/06 17:57:27;;;;;;;5.83;3.27;;;;;;;24.57;38.34;100591.52;1719798;81;25548;-72
2021/06/06 17:59:53;;;;;;;7.08;3.20;;;;;;;24.55;38.52;100590.45;1718227;81;25209;-72
2021/06/06 18:02:19;;;;;;;5.62;3.45;;;;;;;24.57;38.55;100592.32;1716408;81;25171;-72
2021/06/06 18:04:45;;;;;;;8.13;3.58;;;;;;;24.52;38.56;100594.94;1718282;81;25694;-72
2021/06/06 18:07:10;;;;;;;7.47;3.33;;;;;;;24.40;38.81;100588.92;1719602;81;25183;-75
2021/06/06 18:09:36;;;;;;;7.70;3.02;;;;;;;24.38;39.00;100588.36;1723674;81;25264;-75
2021/06/06 18:12:04;;;;;;;11.00;2.95;;;;;;;24.32;39.00;100593.37;1718316;81;25174;-75
2021/06/06 18:14:31;;;;;;;3.75;2.37;;;;;;;24.27;39.22;100590.11;1719820;81;25218;-75
2021/06/06 18:16:59;;;;;;;6.90;3.00;;;;;;;24.22;39.28;100595.39;1719857;81;25278;-75
2021/06/06 18:19:26;;;;;;;10.90;2.90;;;;;;;24.19;39.62;100596.42;1721344;81;25238;-76
2021/06/06 18:21:54;;;;;;;7.80;3.30;;;;;;;24.23;39.97;100597.55;1719578;81;26200;-76
2021/06/06 18:24:25;;;;;;;9.08;3.58;;;;;;;24.20;40.41;100595.36;1718162;81;25586;-76
2021/06/06 18:26:51;;;;;;;11.85;4.35;;;;;;;24.19;40.98;100599.90;1720572;81;25478;-76
2021/06/06 18:29:17;;;;;;;9.18;3.87;;;;;;;24.17;41.28;100597.20;1719810;81;25158;-77
2021/06/06 18:31:44;;;;;;;9.73;4.55;;;;;;;24.15;41.81;100596.92;1717487;81;25155;-72
2021/06/06 18:34:11;;;;;;;10.43;4.00;;;;;;;24.14;42.12;100600.67;1717649;81;25705;-72
2021/06/06 18:36:42;;;;;;;12.07;4.30;;;;;;;24.09;42.02;100611.78;1719160;81;25265;-72
2021/06/06 18:39:07;;;;;;;11.15;3.50;;;;;;;24.03;42.29;100612.25;1719060;81;25691;-73
2021/06/06 18:41:34;;;;;;;10.15;3.72;;;;;;;24.03;42.50;100618.12;1718658;81;25404;-73
2021/06/06 18:44:01;;;;;;;8.60;3.47;;;;;;;24.01;42.85;100614.89;1721853;81;25206;-73
2021/06/06 18:46:28;;;;;;;8.45;4.28;;;;;;;23.98;43.05;100621.56;1726486;81;26566;-72
2021/06/06 18:48:54;;;;;;;8.48;3.87;;;;;;;23.93;43.17;100620.96;1724985;81;25443;-73
2021/06/06 18:51:23;;;;;;;13.98;4.62;;;;;;;23.93;43.51;100630.84;1725525;81;25529;-72
2021/06/06 18:53:49;;;;;;;7.08;4.05;;;;;;;23.89;43.61;100627.83;1725111;80;25758;-76
2021/06/06 18:56:18;;;;;;;11.20;3.47;;;;;;;23.87;43.58;100626.46;1726493;81;25726;-76
2021/06/06 18:58:46;;;;;;;9.85;3.80;;;;;;;23.75;43.13;100627.11;1726681;81;26348;-76
2021/06/06 19:01:17;;;;;;;16.57;4.22;;;;;;;23.54;42.92;100628.64;1725500;81;25628;-76
2021/06/06 19:03:45;;;;;;;7.58;3.98;;;;;;;23.36;42.91;100635.05;1722686;81;25646;-76
2021/06/06 19:06:16;;;;;;;10.75;3.58;;;;;;;23.18;43.18;100635.56;1725542;81;25680;-76
2021/06/06 19:08:42;;;;;;;7.22;3.60;;;;;;;23.01;43.26;100636.89;1725423;81;25691;-76
2021/06/06 19:11:11;;;;;;;8.13;4.15;;;;;;;22.88;43.53;100644.34;1728293;80;26342;-76
2021/06/06 19:13:37;;;;;;;9.90;5.47;;;;;;;22.80;43.70;100644.20;1704577;82;25728;-76
2021/06/06 19:16:04;;;;;;;16.07;6.22;;;;;;;22.78;43.94;100643.13;1727958;81;25613;-77
2021/06/06 19:18:30;;;;;;;11.20;5.60;;;;;;;22.80;44.55;100646.34;1726486;81;25422;-76
2021/06/06 19:20:58;;;;;;;10.15;4.42;;;;;;;22.82;44.83;100651.45;1726729;81;25347;-77
2021/06/06 19:23:28;;;;;;;10.45;6.78;;;;;;;22.84;45.04;100657.36;1728330;81;26172;-76
2021/06/06 19:25:55;;;;;;;17.50;6.72;;;;;;;22.84;45.31;100656.02;1726389;81;25159;-76
2021/06/06 19:28:26;;;;;;;11.38;6.03;;;;;;;22.79;45.47;100655.39;1724296;81;25667;-76
2021/06/06 19:30:52;;;;;;;15.90;10.43;;;;;;;22.71;45.68;100662.97;1724816;81;25849;-75
2021/06/06 19:33:22;;;;;;;18.52;12.93;;;;;;;22.59;45.72;100662.50;1725534;81;25754;-72
2021/06/06 19:35:50;;;;;;;15.65;10.55;;;;;;;22.46;46.13;100664.63;1724385;81;25725;-74
2021/06/06 19:38:19;;;;;;;15.58;8.50;;;;;;;22.38;46.45;100664.47;1724608;81;25693;-75
2021/06/06 19:40:45;;;;;;;12.98;7.75;;;;;;;22.26;46.94;100665.83;1723592;80;25738;-75
2021/06/06 19:43:14;;;;;;;10.48;5.00;;;;;;;22.19;47.51;100665.67;1723563;81;25215;-75
2021/06/06 19:45:41;;;;;;;12.13;6.17;;;;;;;22.13;47.84;100668.72;1718853;81;25619;-74
2021/06/06 19:48:08;;;;;;;17.17;6.05;;;;;;;22.10;48.09;100669.99;1716893;81;26382;-74
2021/06/06 19:50:37;;;;;;;9.83;5.72;;;;;;;22.10;48.23;100666.00;1701322;82;25225;-74
2021/06/06 19:53:04;;;;;;;14.73;7.80;;;;;;;22.09;48.22;100671.55;1720808;81;25203;-74
2021/06/06 19:55:35;;;;;;;15.70;7.72;;;;;;;21.94;48.07;100680.02;1715583;81;25679;-72
2021/06/06 19:58:01;;;;;;;18.23;7.30;;;;;;;21.75;48.05;100679.33;1718758;81;26418;-72
2021/06/06 20:00:29;;;;;;;22.00;8.43;;;;;;;21.55;48.11;100678.30;1715312;81;25615;-72
2021/06/06 20:02:56;;;;;;;11.38;7.08;;;;;;;21.49;48.43;100683.22;1716655;81;25964;-74
2021/06/06 20:05:28;;;;;;;15.25;6.75;;;;;;;21.38;48.53;100688.00;1719288;81;25448;-74
2021/06/06 20:07:54;;;;;;;10.03;6.33;;;;;;;21.27;48.59;100693.03;1720178;81;26378;-74
2021/06/06 20:10:25;;;;;;;15.63;7.15;;;;;;;21.19;48.79;100688.56;1720081;81;25862;-75
2021/06/06 20:12:51;;;;;;;14.10;5.87;;;;;;;21.14;48.92;100692.42;1717361;81;26546;-75
2021/06/06 20:15:18;;;;;;;11.25;5.95;;;;;;;21.05;48.98;100692.73;1719129;81;25724;-74
2021/06/06 20:17:44;;;;;;;12.47;5.58;;;;;;;21.03;49.19;100688.19;1718832;81;25774;-74
2021/06/06 20:20:14;;;;;;;11.00;6.10;;;;;;;20.95;49.08;100695.64;1717582;81;25185;-74
2021/06/06 20:22:40;;;;;;;14.38;6.35;;;;;;;20.83;49.10;100697.73;1720341;81;25203;-72
2021/06/06 20:25:11;;;;;;;11.73;5.72;;;;;;;20.76;49.19;100697.52;1719123;81;26337;-72
2021/06/06 20:27:40;;;;;;;10.60;6.05;;;;;;;20.70;49.17;100693.92;1719806;81;25218;-72